Time;durP1;ratioP1;P1;durP2;ratioP2;P2;SDS_P1;SDS_P2;PMS_P1;PMS_P2;Temp;Humidity;BMP_temperature;BMP_pressure;BME280_temperature;BME280_humidity;BME280_pressure;Samples;Min_cycle;Max_cycle;Signal;HPM_P1;HPM_P2
2022/05/07 00:00:22;;;;;;;25.60;23.20;;;;;;;;;;5042674;28;20076;-65
2022/05/07 00:02:50;;;;;;;25.30;22.90;;;;;;;;;;5042855;28;20119;-65
2022/05/07 00:05:18;;;;;;;28.23;23.80;;;;;;;;;;5034523;28;20029;-65
2022/05/07 00:07:43;;;;;;;25.90;23.23;;;;;;;;;;5033237;28;20044;-65
2022/05/07 00:10:09;;;;;;;25.55;22.88;;;;;;;;;;5036944;28;20046;-66
2022/05/07 00:12:35;;;;;;;25.80;23.02;;;;;;;;;;5044251;28;20046;-66
2022/05/07 00:15:00;;;;;;;28.13;24.02;;;;;;;;;;5045280;28;20033;-65
2022/05/07 00:20:10;;;;;;;25.83;22.83;;;;;;;;;;5042477;28;20068;-65
2022/05/07 00:22:36;;;;;;;26.33;23.63;;;;;;;;;;5042032;28;20104;-65
2022/05/07 00:25:02;;;;;;;29.77;23.98;;;;;;;;;;5036090;28;20135;-65
2022/05/07 00:27:28;;;;;;;26.27;23.58;;;;;;;;;;5038007;28;20067;-65
2022/05/07 00:29:53;;;;;;;26.48;23.63;;;;;;;;;;5047795;28;20064;-65
2022/05/07 00:32:19;;;;;;;26.02;23.45;;;;;;;;;;5019549;28;20041;-65
2022/05/07 00:34:45;;;;;;;26.90;23.17;;;;;;;;;;5024859;28;20033;-64
2022/05/07 00:37:10;;;;;;;25.48;22.88;;;;;;;;;;5042925;28;20032;-65
2022/05/07 00:39:36;;;;;;;25.38;22.92;;;;;;;;;;5042247;28;20087;-65
2022/05/07 00:42:05;;;;;;;25.98;23.30;;;;;;;;;;5037634;28;20640;-65
2022/05/07 00:44:31;;;;;;;;;;;;;;;;;;5027015;28;20044;-65
2022/05/07 00:47:23;;;;;;;25.52;22.75;;;;;;;;;;5023693;28;19965;-64
2022/05/07 00:49:51;;;;;;;26.98;24.17;;;;;;;;;;5004644;28;20452;-64
2022/05/07 00:52:21;;;;;;;26.03;23.23;;;;;;;;;;5036794;28;20132;-64
2022/05/07 00:54:47;;;;;;;26.45;23.65;;;;;;;;;;5025893;28;20037;-65
2022/05/07 00:57:14;;;;;;;24.80;22.20;;;;;;;;;;5023473;28;20829;-64
2022/05/07 00:59:41;;;;;;;27.00;22.65;;;;;;;;;;5022428;28;20060;-65
2022/05/07 01:02:07;;;;;;;26.70;23.15;;;;;;;;;;5024364;28;20510;-65
2022/05/07 01:04:34;;;;;;;26.10;23.45;;;;;;;;;;5042051;28;20037;-66
2022/05/07 01:07:01;;;;;;;26.15;23.58;;;;;;;;;;5020258;28;20400;-65
2022/05/07 01:09:27;;;;;;;24.85;22.25;;;;;;;;;;5027999;28;20045;-66
2022/05/07 01:11:54;;;;;;;23.83;21.63;;;;;;;;;;5016788;28;20044;-65
2022/05/07 01:14:20;;;;;;;25.95;23.15;;;;;;;;;;5015834;28;20480;-65
2022/05/07 01:16:46;;;;;;;25.20;22.50;;;;;;;;;;5020251;28;20036;-65
2022/05/07 01:19:11;;;;;;;25.33;22.70;;;;;;;;;;5022083;28;20036;-65
2022/05/07 01:21:37;;;;;;;25.73;22.92;;;;;;;;;;5039923;28;20052;-65
2022/05/07 01:24:04;;;;;;;26.55;23.75;;;;;;;;;;5025115;28;20025;-65
2022/05/07 01:26:34;;;;;;;23.75;21.35;;;;;;;;;;5020714;28;20119;-65
2022/05/07 01:29:03;;;;;;;23.92;21.42;;;;;;;;;;5022684;28;20064;-66
2022/05/07 01:31:32;;;;;;;24.45;21.92;;;;;;;;;;5034683;28;20041;-65
2022/05/07 01:33:57;;;;;;;24.25;21.77;;;;;;;;;;5024973;28;20034;-65
2022/05/07 01:36:25;;;;;;;25.85;23.35;;;;;;;;;;5024054;28;20496;-65
2022/05/07 01:38:59;;;;;;;26.75;23.05;;;;;;;;;;5025477;28;20037;-65
2022/05/07 01:41:24;;;;;;;26.27;23.33;;;;;;;;;;5024460;28;20048;-65
2022/05/07 01:43:53;;;;;;;29.63;24.55;;;;;;;;;;5028905;28;20155;-65
2022/05/07 01:49:06;;;;;;;25.85;23.38;;;;;;;;;;5038387;28;20033;-65
2022/05/07 01:51:33;;;;;;;28.08;24.10;;;;;;;;;;5026090;28;20051;-65
2022/05/07 01:53:59;;;;;;;25.67;22.85;;;;;;;;;;5039735;28;20167;-65
2022/05/07 01:56:25;;;;;;;25.20;22.70;;;;;;;;;;5025150;28;20112;-66
2022/05/07 01:58:52;;;;;;;24.80;22.23;;;;;;;;;;5024753;28;20136;-65
2022/05/07 02:01:20;;;;;;;24.48;22.02;;;;;;;;;;5027216;28;20041;-65
2022/05/07 02:03:46;;;;;;;26.92;22.88;;;;;;;;;;5015052;28;20933;-65
2022/05/07 02:06:14;;;;;;;25.25;22.65;;;;;;;;;;5026265;28;20364;-65
2022/05/07 02:08:40;;;;;;;24.98;22.38;;;;;;;;;;5046780;28;20039;-65
2022/05/07 02:11:13;;;;;;;25.38;22.75;;;;;;;;;;5029150;28;20044;-65
2022/05/07 02:13:38;;;;;;;24.50;21.92;;;;;;;;;;5016842;28;20040;-65
2022/05/07 02:16:05;;;;;;;27.45;23.55;;;;;;;;;;5027253;28;20034;-65
2022/05/07 02:18:31;;;;;;;29.98;22.80;;;;;;;;;;5027355;28;20034;-65
2022/05/07 02:20:57;;;;;;;24.27;21.88;;;;;;;;;;5023416;28;20648;-66
2022/05/07 02:23:23;;;;;;;27.92;23.67;;;;;;;;;;5025617;28;20037;-65
2022/05/07 02:25:49;;;;;;;24.63;22.02;;;;;;;;;;5027333;28;20101;-65
2022/05/07 02:28:17;;;;;;;29.83;23.23;;;;;;;;;;5021191;28;20037;-65
2022/05/07 02:30:42;;;;;;;24.95;22.35;;;;;;;;;;5025543;28;20041;-65
2022/05/07 02:33:08;;;;;;;25.42;22.65;;;;;;;;;;5029561;28;20029;-65
2022/05/07 02:35:37;;;;;;;24.87;22.50;;;;;;;;;;5026060;28;20048;-65
2022/05/07 02:38:02;;;;;;;26.02;23.35;;;;;;;;;;5029351;28;20288;-66
2022/05/07 02:40:29;;;;;;;25.40;22.75;;;;;;;;;;5021254;28;20035;-66
2022/05/07 02:42:57;;;;;;;26.15;23.48;;;;;;;;;;5015972;28;20045;-65
2022/05/07 02:45:22;;;;;;;27.42;23.00;;;;;;;;;;5017570;28;20067;-65
2022/05/07 02:47:57;;;;;;;29.55;23.17;;;;;;;;;;5015968;28;20045;-65
2022/05/07 02:50:23;;;;;;;32.30;24.90;;;;;;;;;;5036932;28;20122;-65
2022/05/07 02:52:49;;;;;;;31.60;25.70;;;;;;;;;;5045223;28;20052;-65
2022/05/07 02:55:14;;;;;;;28.38;24.27;;;;;;;;;;5021089;28;20029;-65
2022/05/07 02:57:46;;;;;;;26.08;23.27;;;;;;;;;;5041054;28;20021;-65
2022/05/07 03:00:13;;;;;;;27.23;23.63;;;;;;;;;;5044754;28;20104;-66
2022/05/07 03:02:38;;;;;;;25.63;23.02;;;;;;;;;;5028398;28;20041;-66
2022/05/07 03:05:06;;;;;;;25.15;22.55;;;;;;;;;;5021602;28;20033;-65
2022/05/07 03:07:31;;;;;;;27.15;22.80;;;;;;;;;;5014952;28;20428;-64
2022/05/07 03:10:00;;;;;;;29.75;22.55;;;;;;;;;;5026587;28;20033;-64
2022/05/07 03:12:28;;;;;;;28.55;23.55;;;;;;;;;;5027951;28;20048;-65
2022/05/07 03:14:53;;;;;;;27.85;24.35;;;;;;;;;;5024025;28;20068;-65
2022/05/07 03:17:19;;;;;;;28.30;23.88;;;;;;;;;;5018688;28;20029;-65
2022/05/07 03:19:44;;;;;;;29.15;23.10;;;;;;;;;;5029758;28;20365;-65
2022/05/07 03:22:12;;;;;;;28.73;23.27;;;;;;;;;;5028616;28;20091;-65
2022/05/07 03:24:38;;;;;;;26.13;23.42;;;;;;;;;;5037720;28;20063;-65
2022/05/07 03:27:05;;;;;;;25.02;22.33;;;;;;;;;;5024810;28;20068;-65
2022/05/07 03:29:32;;;;;;;25.23;22.38;;;;;;;;;;5027099;28;20033;-64
2022/05/07 03:32:07;;;;;;;26.90;23.27;;;;;;;;;;5030673;28;20052;-65
2022/05/07 03:34:32;;;;;;;26.92;23.05;;;;;;;;;;5042817;28;20562;-65
2022/05/07 03:36:59;;;;;;;28.35;25.23;;;;;;;;;;5024117;28;20032;-65
2022/05/07 03:39:26;;;;;;;31.25;23.92;;;;;;;;;;5023644;28;20362;-65
2022/05/07 03:41:52;;;;;;;28.63;23.60;;;;;;;;;;5029957;28;20581;-64
2022/05/07 03:44:20;;;;;;;28.75;23.88;;;;;;;;;;5027228;28;20032;-64
2022/05/07 03:46:48;;;;;;;26.35;23.30;;;;;;;;;;5035656;28;20037;-63
2022/05/07 03:49:14;;;;;;;25.73;22.98;;;;;;;;;;5048175;28;20380;-65
2022/05/07 03:54:26;;;;;;;24.60;22.00;;;;;;;;;;5015189;28;20480;-65
2022/05/07 03:56:52;;;;;;;27.83;22.23;;;;;;;;;;5018006;28;20045;-65
2022/05/07 03:59:22;;;;;;;24.90;22.10;;;;;;;;;;5027333;28;20041;-64
2022/05/07 04:01:52;;;;;;;24.45;21.92;;;;;;;;;;5023066;28;20446;-64
2022/05/07 04:04:26;;;;;;;23.52;21.23;;;;;;;;;;5004674;28;20037;-64
2022/05/07 04:06:52;;;;;;;28.75;22.65;;;;;;;;;;5029993;28;20426;-64
2022/05/07 04:09:18;;;;;;;23.88;21.45;;;;;;;;;;5030420;28;20033;-64
2022/05/07 04:11:44;;;;;;;25.23;21.95;;;;;;;;;;5024333;28;20389;-64
2022/05/07 04:14:11;;;;;;;24.73;22.17;;;;;;;;;;4998915;28;20033;-64
2022/05/07 04:16:36;;;;;;;24.08;21.73;;;;;;;;;;5020889;28;20048;-64
2022/05/07 04:19:11;;;;;;;24.48;22.10;;;;;;;;;;5023167;28;20078;-64
2022/05/07 04:21:38;;;;;;;25.10;22.45;;;;;;;;;;5025171;28;20037;-65
2022/05/07 04:24:11;;;;;;;25.98;22.98;;;;;;;;;;5022507;28;20116;-64
2022/05/07 04:26:37;;;;;;;26.25;22.23;;;;;;;;;;5027255;28;20041;-65
2022/05/07 04:29:04;;;;;;;27.48;22.27;;;;;;;;;;5023332;28;20092;-64
2022/05/07 04:31:31;;;;;;;25.80;22.63;;;;;;;;;;5013375;28;20095;-65
2022/05/07 04:34:02;;;;;;;24.77;21.25;;;;;;;;;;5029512;28;20036;-64
2022/05/07 04:36:32;;;;;;;25.83;22.95;;;;;;;;;;5027594;28;20041;-64
2022/05/07 04:39:02;;;;;;;25.77;23.05;;;;;;;;;;5014199;28;20074;-64
2022/05/07 04:41:33;;;;;;;25.77;23.08;;;;;;;;;;5026242;28;20049;-64
2022/05/07 04:43:58;;;;;;;28.55;22.90;;;;;;;;;;5046311;28;20033;-64
2022/05/07 04:46:24;;;;;;;28.67;24.17;;;;;;;;;;5023082;28;20047;-64
2022/05/07 04:49:00;;;;;;;24.52;21.92;;;;;;;;;;5012094;28;20068;-64
2022/05/07 04:51:26;;;;;;;28.20;22.58;;;;;;;;;;5028414;28;20044;-64
2022/05/07 04:54:02;;;;;;;29.05;23.63;;;;;;;;;;5017360;28;20037;-64
2022/05/07 04:56:28;;;;;;;25.83;23.08;;;;;;;;;;5032241;22;20100;-60
2022/05/07 04:59:02;;;;;;;26.92;23.00;;;;;;;;;;5026116;28;20037;-59
2022/05/07 05:01:35;;;;;;;25.10;22.50;;;;;;;;;;5034916;28;20063;-60
2022/05/07 05:04:04;;;;;;;26.03;23.17;;;;;;;;;;5032186;28;20047;-59
2022/05/07 05:06:33;;;;;;;24.00;21.67;;;;;;;;;;5032927;28;20116;-60
2022/05/07 05:09:07;;;;;;;33.88;23.33;;;;;;;;;;5032776;28;20470;-60
2022/05/07 05:11:38;;;;;;;27.17;23.25;;;;;;;;;;5029573;28;20427;-58
2022/05/07 05:15:01;;;;;;;26.08;23.42;;;;;;;;;;5029377;28;20503;-60
2022/05/07 05:16:55;;;;;;;24.95;22.35;;;;;;;;;;5014781;28;20757;-59
2022/05/07 05:19:21;;;;;;;26.25;23.35;;;;;;;;;;5017511;28;20033;-58
2022/05/07 05:21:46;;;;;;;25.13;22.60;;;;;;;;;;5027311;28;20079;-58
2022/05/07 05:24:18;;;;;;;25.85;23.15;;;;;;;;;;5033140;28;20045;-61
2022/05/07 05:26:43;;;;;;;25.35;22.85;;;;;;;;;;5043721;28;20094;-60
2022/05/07 05:29:14;;;;;;;24.35;21.75;;;;;;;;;;5017079;28;20116;-61
2022/05/07 05:31:40;;;;;;;25.15;22.55;;;;;;;;;;5045516;28;20551;-61
2022/05/07 05:34:35;;;;;;;23.45;21.35;;;;;;;;;;5023976;28;20045;-59
2022/05/07 05:37:03;;;;;;;23.70;20.95;;;;;;;;;;5028197;28;20483;-60
2022/05/07 05:39:31;;;;;;;23.13;20.88;;;;;;;;;;5046080;28;20080;-60
2022/05/07 05:41:59;;;;;;;22.48;20.20;;;;;;;;;;5022546;28;20056;-60
2022/05/07 05:44:27;;;;;;;21.83;19.75;;;;;;;;;;5018409;28;20048;-61
2022/05/07 05:46:53;;;;;;;21.33;19.42;;;;;;;;;;5051053;28;20037;-61
2022/05/07 05:49:20;;;;;;;20.35;18.65;;;;;;;;;;5022418;28;20087;-57
2022/05/07 05:51:46;;;;;;;20.77;18.83;;;;;;;;;;5019697;28;20049;-59
2022/05/07 05:54:13;;;;;;;20.20;18.30;;;;;;;;;;5021452;28;20043;-59
2022/05/07 05:56:40;;;;;;;19.33;17.70;;;;;;;;;;5030355;28;20036;-59
2022/05/07 05:59:07;;;;;;;20.40;18.70;;;;;;;;;;5020327;28;20033;-60
2022/05/07 06:01:43;;;;;;;19.00;17.48;;;;;;;;;;5025458;28;20037;-61
2022/05/07 06:04:27;;;;;;;18.67;17.00;;;;;;;;;;5045457;28;20036;-60
2022/05/07 06:06:55;;;;;;;19.17;17.35;;;;;;;;;;5020833;28;20124;-61
2022/05/07 06:09:23;;;;;;;18.38;16.90;;;;;;;;;;5042331;28;20586;-62
2022/05/07 06:11:51;;;;;;;18.73;17.23;;;;;;;;;;5027957;28;20038;-60
2022/05/07 06:14:17;;;;;;;18.30;16.70;;;;;;;;;;5026022;28;20034;-60
2022/05/07 06:16:42;;;;;;;18.88;17.17;;;;;;;;;;5019935;28;20091;-60
2022/05/07 06:19:12;;;;;;;;;;;;;;;;;;5019485;28;20029;-61
2022/05/07 06:21:44;;;;;;;18.38;16.98;;;;;;;;;;5032648;28;19962;-60
2022/05/07 06:29:41;;;;;;;18.95;17.55;;;;;;;;;;5027676;28;20547;-61
2022/05/07 06:32:12;;;;;;;19.08;17.48;;;;;;;;;;5029054;28;20045;-60
2022/05/07 06:34:38;;;;;;;17.00;15.68;;;;;;;;;;5031779;28;20044;-60
2022/05/07 06:37:04;;;;;;;19.05;17.35;;;;;;;;;;5028278;28;20618;-58
2022/05/07 06:39:31;;;;;;;19.23;17.63;;;;;;;;;;5018461;28;20116;-61
2022/05/07 06:41:58;;;;;;;19.15;17.27;;;;;;;;;;5027702;28;20037;-60
2022/05/07 06:44:23;;;;;;;19.48;17.67;;;;;;;;;;5046268;28;20029;-60
2022/05/07 06:46:50;;;;;;;18.20;16.60;;;;;;;;;;5039822;28;20035;-61
2022/05/07 06:49:18;;;;;;;18.85;17.17;;;;;;;;;;5023590;28;20029;-61
2022/05/07 06:51:51;;;;;;;18.27;16.73;;;;;;;;;;5025898;28;20073;-61
2022/05/07 06:54:17;;;;;;;18.60;17.00;;;;;;;;;;5046770;28;20040;-61
2022/05/07 06:56:42;;;;;;;18.40;16.80;;;;;;;;;;5048399;28;20039;-61
2022/05/07 06:59:10;;;;;;;17.70;16.30;;;;;;;;;;5033098;28;20033;-60
2022/05/07 07:01:36;;;;;;;19.17;17.77;;;;;;;;;;5042083;28;20040;-61
2022/05/07 07:04:02;;;;;;;19.70;17.38;;;;;;;;;;5048740;28;20503;-59
2022/05/07 07:06:28;;;;;;;16.98;15.68;;;;;;;;;;5034391;28;20060;-60
2022/05/07 07:08:54;;;;;;;18.70;17.20;;;;;;;;;;5041936;28;20041;-60
2022/05/07 07:11:23;;;;;;;17.50;16.10;;;;;;;;;;5049544;28;20488;-61
2022/05/07 07:13:49;;;;;;;18.73;17.20;;;;;;;;;;5037133;28;20046;-60
2022/05/07 07:16:15;;;;;;;18.20;16.63;;;;;;;;;;5041858;28;20375;-60
2022/05/07 07:18:41;;;;;;;18.30;16.75;;;;;;;;;;5044556;28;20049;-62
2022/05/07 07:21:07;;;;;;;18.25;16.63;;;;;;;;;;5040093;28;20072;-60
2022/05/07 07:23:32;;;;;;;18.38;16.85;;;;;;;;;;5044905;28;20037;-61
2022/05/07 07:25:58;;;;;;;17.90;16.38;;;;;;;;;;5044712;28;20123;-61
2022/05/07 07:28:23;;;;;;;18.85;17.15;;;;;;;;;;5045231;28;20064;-59
2022/05/07 07:30:49;;;;;;;18.67;17.05;;;;;;;;;;5033831;28;20120;-58
2022/05/07 07:33:15;;;;;;;19.20;17.38;;;;;;;;;;5048308;28;20029;-58
2022/05/07 07:35:43;;;;;;;18.95;17.35;;;;;;;;;;5049278;28;20048;-60
2022/05/07 07:38:09;;;;;;;18.48;16.90;;;;;;;;;;5039149;28;20888;-59
2022/05/07 07:40:35;;;;;;;19.13;17.63;;;;;;;;;;5037727;28;20033;-61
2022/05/07 07:43:02;;;;;;;18.00;16.63;;;;;;;;;;5048403;28;20086;-61
2022/05/07 07:48:13;;;;;;;19.00;17.08;;;;;;;;;;5034960;28;20041;-61
2022/05/07 07:50:40;;;;;;;18.77;16.98;;;;;;;;;;5044854;28;20056;-62
2022/05/07 07:53:08;;;;;;;18.50;16.77;;;;;;;;;;5044193;28;20040;-59
2022/05/07 07:55:34;;;;;;;18.00;16.38;;;;;;;;;;5040590;28;20033;-60
2022/05/07 07:58:01;;;;;;;18.88;17.17;;;;;;;;;;5034736;28;20029;-57
2022/05/07 08:00:30;;;;;;;19.17;17.45;;;;;;;;;;5048008;28;20517;-60
2022/05/07 08:03:01;;;;;;;18.52;17.02;;;;;;;;;;5045979;28;20036;-60
2022/05/07 08:05:34;;;;;;;17.25;15.77;;;;;;;;;;5034134;28;20113;-61
2022/05/07 08:13:38;;;;;;;16.60;14.82;;;;;;;;;;5035888;28;20045;-59
2022/05/07 08:16:04;;;;;;;16.80;15.40;;;;;;;;;;5045581;28;20032;-59
2022/05/07 08:18:30;;;;;;;16.88;15.52;;;;;;;;;;5048539;28;20043;-58
2022/05/07 08:20:56;;;;;;;17.10;15.43;;;;;;;;;;5036236;28;20048;-59
2022/05/07 08:23:22;;;;;;;18.60;16.95;;;;;;;;;;5035681;28;20041;-58
2022/05/07 08:25:49;;;;;;;17.70;16.38;;;;;;;;;;5043807;28;20071;-60
2022/05/07 08:28:15;;;;;;;17.88;16.48;;;;;;;;;;5044497;28;20033;-61
2022/05/07 08:30:41;;;;;;;18.35;16.75;;;;;;;;;;5034006;28;20043;-62
2022/05/07 08:33:07;;;;;;;17.48;15.80;;;;;;;;;;5047425;28;20041;-62
2022/05/07 08:35:32;;;;;;;16.77;15.32;;;;;;;;;;5047266;28;20051;-61
2022/05/07 08:37:58;;;;;;;16.60;15.23;;;;;;;;;;5040075;28;20064;-62
2022/05/07 08:40:25;;;;;;;16.50;15.10;;;;;;;;;;5031777;28;20624;-61
2022/05/07 08:42:51;;;;;;;17.30;15.70;;;;;;;;;;5047891;28;20037;-62
2022/05/07 08:45:17;;;;;;;17.05;15.45;;;;;;;;;;5047529;28;20581;-62
2022/05/07 08:47:43;;;;;;;16.77;15.48;;;;;;;;;;5039727;28;20459;-62
2022/05/07 08:50:13;;;;;;;16.40;15.00;;;;;;;;;;5036895;28;20483;-61
2022/05/07 08:52:41;;;;;;;16.73;15.27;;;;;;;;;;5046816;28;20112;-61
2022/05/07 08:55:09;;;;;;;15.95;14.68;;;;;;;;;;5043893;28;20041;-61
2022/05/07 08:57:36;;;;;;;16.63;15.17;;;;;;;;;;5031923;28;20033;-62
2022/05/07 09:00:04;;;;;;;16.15;14.75;;;;;;;;;;5040828;28;20025;-57
2022/05/07 09:02:41;;;;;;;16.42;15.00;;;;;;;;;;5047529;28;20121;-59
2022/05/07 09:05:08;;;;;;;15.93;14.55;;;;;;;;;;5038560;28;20033;-61
2022/05/07 09:07:34;;;;;;;15.73;14.50;;;;;;;;;;5037148;28;20036;-60
2022/05/07 09:09:59;;;;;;;16.63;15.05;;;;;;;;;;5047128;28;20032;-60
2022/05/07 09:12:28;;;;;;;16.23;14.70;;;;;;;;;;5047385;28;20179;-59
2022/05/07 09:15:05;;;;;;;14.52;13.30;;;;;;;;;;5032517;28;20026;-62
2022/05/07 09:17:31;;;;;;;15.40;13.85;;;;;;;;;;5035112;28;20535;-58
2022/05/07 09:20:13;;;;;;;15.85;14.18;;;;;;;;;;5038206;28;20079;-59
2022/05/07 09:22:50;;;;;;;15.38;14.27;;;;;;;;;;5044167;28;20040;-58
2022/05/07 09:25:21;;;;;;;17.77;15.98;;;;;;;;;;5037676;28;20033;-62
2022/05/07 09:27:48;;;;;;;15.18;13.98;;;;;;;;;;5048774;28;20040;-58
2022/05/07 09:30:30;;;;;;;15.50;14.10;;;;;;;;;;5051022;28;20115;-59
2022/05/07 09:32:56;;;;;;;14.65;13.32;;;;;;;;;;5036260;28;20112;-58
2022/05/07 09:35:47;;;;;;;13.32;12.15;;;;;;;;;;5046485;28;20037;-62
2022/05/07 09:38:15;;;;;;;13.50;12.55;;;;;;;;;;5046215;28;20048;-61
2022/05/07 09:40:42;;;;;;;13.23;12.13;;;;;;;;;;5043195;28;20510;-60
2022/05/07 09:43:10;;;;;;;13.55;12.50;;;;;;;;;;5038538;28;20052;-61
2022/05/07 09:45:37;;;;;;;13.38;12.40;;;;;;;;;;5050877;28;20087;-61
2022/05/07 09:48:07;;;;;;;14.10;12.90;;;;;;;;;;5050829;28;20043;-59
2022/05/07 09:58:34;;;;;;;11.52;10.63;;;;;;;;;;5035780;28;20083;-62
2022/05/07 10:01:21;;;;;;;10.85;9.90;;;;;;;;;;5042115;28;20033;-61
2022/05/07 10:04:04;;;;;;;12.10;11.30;;;;;;;;;;5049609;28;20040;-61
2022/05/07 10:06:47;;;;;;;11.27;10.30;;;;;;;;;;5049715;28;20501;-62
2022/05/07 10:09:51;;;;;;;11.70;11.00;;;;;;;;;;5040730;28;20504;-60
2022/05/07 10:12:19;;;;;;;12.48;11.65;;;;;;;;;;5048645;28;20049;-62
2022/05/07 10:14:45;;;;;;;12.45;11.65;;;;;;;;;;5044241;28;20398;-61
2022/05/07 10:17:12;;;;;;;13.07;11.88;;;;;;;;;;5035785;28;20133;-62
2022/05/07 10:19:42;;;;;;;12.93;11.82;;;;;;;;;;5048193;28;20464;-60
2022/05/07 10:22:16;;;;;;;12.05;11.13;;;;;;;;;;5038433;28;20077;-59
2022/05/07 10:24:43;;;;;;;12.55;11.65;;;;;;;;;;5042874;28;20432;-62
2022/05/07 10:27:24;;;;;;;12.13;11.23;;;;;;;;;;5045301;28;20636;-61
2022/05/07 10:29:50;;;;;;;12.77;11.85;;;;;;;;;;5047856;28;20029;-61
2022/05/07 10:32:18;;;;;;;13.13;12.18;;;;;;;;;;5045642;28;20033;-62
2022/05/07 10:34:52;;;;;;;13.18;12.10;;;;;;;;;;5033651;28;20112;-62
2022/05/07 10:37:18;;;;;;;12.65;11.43;;;;;;;;;;5050314;28;20567;-60
2022/05/07 10:39:53;;;;;;;11.90;10.88;;;;;;;;;;5047669;28;20563;-59
2022/05/07 10:42:22;;;;;;;12.75;11.70;;;;;;;;;;5038044;28;20090;-61
2022/05/07 10:44:49;;;;;;;12.93;12.13;;;;;;;;;;5045186;28;20109;-61
2022/05/07 10:47:18;;;;;;;11.82;10.82;;;;;;;;;;5049723;28;20491;-61
2022/05/07 10:50:09;;;;;;;11.63;10.73;;;;;;;;;;5042986;28;20036;-60
2022/05/07 10:52:35;;;;;;;12.30;11.30;;;;;;;;;;5043247;28;20045;-61
2022/05/07 10:55:12;;;;;;;11.98;10.85;;;;;;;;;;5039332;28;20021;-61
2022/05/07 10:57:43;;;;;;;12.05;10.38;;;;;;;;;;5050408;22;20067;-70
2022/05/07 11:00:15;;;;;;;11.75;10.82;;;;;;;;;;5046015;28;20407;-71
2022/05/07 11:02:42;;;;;;;11.38;10.60;;;;;;;;;;5049228;28;20059;-72
2022/05/07 11:05:08;;;;;;;10.88;10.15;;;;;;;;;;5049665;28;20032;-72
2022/05/07 11:07:33;;;;;;;11.15;10.38;;;;;;;;;;5035051;28;20037;-71
2022/05/07 11:09:59;;;;;;;11.60;10.80;;;;;;;;;;5040133;28;20090;-69
2022/05/07 11:12:28;;;;;;;;;;;;;;;;;;5049782;28;20044;-69
2022/05/07 11:14:54;;;;;;;11.68;10.77;;;;;;;;;;5043027;28;20467;-70
2022/05/07 11:17:35;;;;;;;11.57;10.63;;;;;;;;;;5036824;28;20033;-70
2022/05/07 11:20:03;;;;;;;10.85;10.15;;;;;;;;;;5048342;28;20041;-71
2022/05/07 11:22:31;;;;;;;12.00;10.85;;;;;;;;;;5034356;28;20033;-71
2022/05/07 11:25:00;;;;;;;11.50;10.70;;;;;;;;;;5039506;28;20079;-70
2022/05/07 11:27:33;;;;;;;11.40;10.60;;;;;;;;;;5049028;28;20044;-69
2022/05/07 11:30:00;;;;;;;11.63;10.85;;;;;;;;;;5041083;28;20029;-70
2022/05/07 11:32:37;;;;;;;11.25;10.43;;;;;;;;;;5033789;28;20535;-69
2022/05/07 11:35:04;;;;;;;10.98;10.05;;;;;;;;;;5049074;28;20098;-69
2022/05/07 11:37:38;;;;;;;12.00;10.95;;;;;;;;;;5049233;28;20554;-69
2022/05/07 11:40:03;;;;;;;11.38;10.57;;;;;;;;;;5017610;28;20682;-69
2022/05/07 11:45:25;;;;;;;11.70;10.88;;;;;;;;;;5039713;28;20063;-69
2022/05/07 11:45:41;;;;;;;11.07;10.27;;;;;;;;;;5042760;28;20040;-69
2022/05/07 11:48:11;;;;;;;11.98;10.98;;;;;;;;;;5044675;28;20041;-69
2022/05/07 11:50:55;;;;;;;11.65;10.85;;;;;;;;;;5046114;28;20095;-69
2022/05/07 11:53:22;;;;;;;12.40;11.55;;;;;;;;;;5038654;28;20028;-70
2022/05/07 11:55:50;;;;;;;11.52;10.70;;;;;;;;;;5037869;28;20384;-70
2022/05/07 11:58:22;;;;;;;11.45;10.55;;;;;;;;;;5043146;28;20044;-70
2022/05/07 12:00:54;;;;;;;11.68;10.65;;;;;;;;;;5034598;28;20095;-70
2022/05/07 12:03:23;;;;;;;10.70;10.00;;;;;;;;;;5044525;28;20036;-70
2022/05/07 12:05:51;;;;;;;11.63;10.68;;;;;;;;;;5048841;28;20037;-70
2022/05/07 12:08:18;;;;;;;11.57;10.82;;;;;;;;;;5045607;28;20072;-69
2022/05/07 12:10:45;;;;;;;11.73;10.88;;;;;;;;;;5034502;28;20416;-69
2022/05/07 12:13:14;;;;;;;10.88;10.18;;;;;;;;;;5047473;28;20060;-69
2022/05/07 12:18:24;;;;;;;10.98;10.27;;;;;;;;;;5042988;28;20124;-68
2022/05/07 12:20:51;;;;;;;11.75;10.68;;;;;;;;;;5032602;28;20622;-68
2022/05/07 12:31:32;;;;;;;11.48;10.57;;;;;;;;;;5030826;28;20046;-70
2022/05/07 12:33:57;;;;;;;11.23;10.43;;;;;;;;;;5047832;28;20040;-69
2022/05/07 12:36:23;;;;;;;11.13;10.20;;;;;;;;;;5048521;28;20040;-70
2022/05/07 12:38:49;;;;;;;11.63;10.63;;;;;;;;;;5038354;28;20032;-69
2022/05/07 12:41:16;;;;;;;10.70;10.10;;;;;;;;;;5040772;28;20545;-69
2022/05/07 12:43:41;;;;;;;18.83;11.18;;;;;;;;;;5047604;28;20041;-69
2022/05/07 12:46:07;;;;;;;13.05;11.07;;;;;;;;;;5048217;28;20083;-70
2022/05/07 12:48:33;;;;;;;11.10;10.18;;;;;;;;;;5027722;28;20091;-69
2022/05/07 12:50:58;;;;;;;11.35;10.65;;;;;;;;;;5042424;28;20562;-69
2022/05/07 12:53:24;;;;;;;10.98;10.02;;;;;;;;;;5039461;28;20028;-69
2022/05/07 12:55:50;;;;;;;10.88;9.98;;;;;;;;;;5047486;28;20091;-70
2022/05/07 12:58:16;;;;;;;26.13;11.70;;;;;;;;;;5039213;28;20048;-70
2022/05/07 13:00:42;;;;;;;10.82;10.13;;;;;;;;;;5041088;28;20036;-70
2022/05/07 13:03:08;;;;;;;11.55;10.75;;;;;;;;;;5047335;28;20108;-70
2022/05/07 13:05:34;;;;;;;11.25;10.50;;;;;;;;;;5045336;28;20032;-70
2022/05/07 13:08:04;;;;;;;10.60;9.95;;;;;;;;;;5032269;28;20045;-70
2022/05/07 13:10:33;;;;;;;11.27;10.48;;;;;;;;;;5044612;28;20407;-70
2022/05/07 13:12:59;;;;;;;11.45;10.40;;;;;;;;;;5042477;28;20049;-71
2022/05/07 13:15:28;;;;;;;10.75;10.02;;;;;;;;;;5034950;28;20480;-71
2022/05/07 13:18:00;;;;;;;;;;;;;;;;;;5039707;28;20098;-70
2022/05/07 13:20:29;;;;;;;11.25;10.20;;;;;;;;;;5045146;28;19912;-69
2022/05/07 13:22:55;;;;;;;11.15;10.38;;;;;;;;;;5037795;28;20036;-70
2022/05/07 13:25:23;;;;;;;11.55;10.75;;;;;;;;;;5020734;28;20037;-70
2022/05/07 13:27:50;;;;;;;10.60;9.75;;;;;;;;;;5029602;28;20036;-70
2022/05/07 13:30:17;;;;;;;11.43;10.52;;;;;;;;;;5047425;28;20086;-70
2022/05/07 13:32:46;;;;;;;10.75;9.95;;;;;;;;;;5026580;28;20045;-70
2022/05/07 13:35:12;;;;;;;11.20;10.23;;;;;;;;;;5032828;28;20116;-70
2022/05/07 13:37:38;;;;;;;10.75;9.95;;;;;;;;;;5040903;28;20037;-69
2022/05/07 13:40:05;;;;;;;11.80;10.70;;;;;;;;;;5044767;28;20066;-69
2022/05/07 13:42:30;;;;;;;11.10;10.23;;;;;;;;;;5037331;28;20036;-69
2022/05/07 13:44:56;;;;;;;11.52;10.70;;;;;;;;;;5034912;28;20041;-69
2022/05/07 13:47:22;;;;;;;28.27;11.55;;;;;;;;;;5044248;28;20068;-69
2022/05/07 13:49:49;;;;;;;10.90;10.07;;;;;;;;;;5041271;28;20516;-69
2022/05/07 13:52:15;;;;;;;11.90;10.90;;;;;;;;;;5014328;28;20116;-69
2022/05/07 13:54:42;;;;;;;11.10;10.30;;;;;;;;;;5039613;28;20183;-69
2022/05/07 13:57:08;;;;;;;11.43;10.35;;;;;;;;;;5027426;28;20120;-69
2022/05/07 13:59:33;;;;;;;11.43;10.50;;;;;;;;;;5039868;28;20116;-69
2022/05/07 14:02:00;;;;;;;11.27;10.40;;;;;;;;;;5032941;28;20120;-69
2022/05/07 14:04:29;;;;;;;11.13;10.23;;;;;;;;;;5046978;28;20037;-69
2022/05/07 14:06:59;;;;;;;11.55;10.63;;;;;;;;;;5045151;28;20033;-70
2022/05/07 14:09:25;;;;;;;11.25;10.25;;;;;;;;;;5039262;28;20061;-70
2022/05/07 14:11:51;;;;;;;11.57;10.88;;;;;;;;;;5039149;28;20462;-70
2022/05/07 14:14:16;;;;;;;11.15;10.27;;;;;;;;;;5050046;28;20063;-70
2022/05/07 14:16:42;;;;;;;11.40;10.50;;;;;;;;;;5047265;28;20033;-70
2022/05/07 14:19:07;;;;;;;11.13;10.32;;;;;;;;;;5042797;28;22453;-71
2022/05/07 14:21:36;;;;;;;11.82;10.60;;;;;;;;;;5046291;28;20404;-70
2022/05/07 14:24:03;;;;;;;11.57;10.82;;;;;;;;;;5045095;28;20036;-70
2022/05/07 14:26:28;;;;;;;11.60;10.90;;;;;;;;;;5035638;28;20035;-70
2022/05/07 14:28:56;;;;;;;11.45;10.60;;;;;;;;;;5036213;28;20116;-69
2022/05/07 14:31:23;;;;;;;12.70;11.45;;;;;;;;;;5050907;28;20161;-70
2022/05/07 14:33:48;;;;;;;11.38;10.48;;;;;;;;;;5048557;28;20484;-70
2022/05/07 14:36:14;;;;;;;11.30;10.50;;;;;;;;;;5034821;28;20384;-70
2022/05/07 14:38:39;;;;;;;11.70;10.77;;;;;;;;;;5043239;28;20040;-70
2022/05/07 14:41:05;;;;;;;11.55;10.48;;;;;;;;;;5049276;28;20501;-70
2022/05/07 14:43:30;;;;;;;13.27;10.40;;;;;;;;;;5044283;28;20032;-70
2022/05/07 14:45:56;;;;;;;11.20;10.38;;;;;;;;;;5040403;28;20041;-70
2022/05/07 14:48:21;;;;;;;12.02;10.90;;;;;;;;;;5047369;28;20025;-69
2022/05/07 14:50:47;;;;;;;12.10;11.18;;;;;;;;;;5041681;28;20045;-69
2022/05/07 14:53:13;;;;;;;12.20;11.10;;;;;;;;;;5037282;28;20542;-70
2022/05/07 14:55:39;;;;;;;12.13;11.13;;;;;;;;;;5038862;28;20105;-70
2022/05/07 14:58:04;;;;;;;12.25;11.43;;;;;;;;;;5049728;28;20033;-70
2022/05/07 15:00:30;;;;;;;12.23;11.15;;;;;;;;;;5049201;28;20041;-70
2022/05/07 15:02:56;;;;;;;11.88;11.07;;;;;;;;;;5035899;28;20037;-70
2022/05/07 15:05:21;;;;;;;12.27;11.20;;;;;;;;;;5046297;28;20112;-71